createdAt,value
2019-03-23T00:01:37.359Z,72.87
2019-03-23T00:04:05.833Z,70.67
2019-03-23T00:06:34.403Z,73.45
2019-03-23T00:09:03.807Z,71.60
2019-03-23T00:11:32.236Z,76.62
2019-03-23T00:14:00.665Z,70.87
2019-03-23T00:16:29.049Z,72.25
2019-03-23T00:18:57.519Z,67.20
2019-03-23T00:21:26.000Z,60.48
2019-03-23T00:23:54.395Z,70.85
2019-03-23T00:26:22.789Z,69.55
2019-03-23T00:28:51.206Z,70.12
2019-03-23T00:31:19.603Z,70.30
2019-03-23T00:33:48.127Z,66.97
2019-03-23T00:36:16.499Z,68.47
2019-03-23T00:38:44.887Z,68.22
2019-03-23T00:41:14.359Z,68.22
2019-03-23T00:43:42.785Z,70.87
2019-03-23T00:46:11.181Z,71.40
2019-03-23T00:48:39.630Z,70.52
2019-03-23T00:51:08.096Z,65.12
2019-03-23T00:53:36.490Z,69.20
2019-03-23T00:56:04.911Z,68.15
2019-03-23T00:58:33.314Z,61.77
2019-03-23T01:01:01.793Z,62.98
2019-03-23T01:03:30.223Z,66.60
2019-03-23T01:05:58.727Z,67.92
2019-03-23T01:08:27.119Z,69.77
2019-03-23T01:10:55.589Z,64.47
2019-03-23T01:13:23.988Z,64.30
2019-03-23T01:15:52.471Z,69.12
2019-03-23T01:18:20.870Z,63.25
2019-03-23T01:20:50.023Z,63.92
2019-03-23T01:23:18.670Z,63.23
2019-03-23T01:25:47.067Z,61.90
2019-03-23T01:28:15.528Z,61.25
2019-03-23T01:30:43.991Z,63.80
2019-03-23T01:33:12.382Z,62.78
2019-03-23T01:35:40.821Z,64.82
2019-03-23T01:38:09.361Z,63.87
2019-03-23T01:40:37.772Z,62.03
2019-03-23T01:43:06.291Z,62.95
2019-03-23T01:45:54.129Z,64.45
2019-03-23T01:48:22.538Z,63.95
2019-03-23T01:50:50.930Z,62.27
2019-03-23T01:53:19.412Z,63.17
2019-03-23T01:55:47.836Z,64.40
2019-03-23T01:58:16.262Z,58.10
2019-03-23T02:00:44.686Z,62.23
2019-03-23T02:03:13.080Z,61.85
2019-03-23T02:05:41.612Z,63.08
2019-03-23T02:08:10.044Z,63.23
2019-03-23T02:10:38.444Z,61.70
2019-03-23T02:13:06.907Z,63.10
2019-03-23T02:15:35.308Z,63.80
2019-03-23T02:18:03.708Z,60.48
2019-03-23T02:20:32.167Z,58.28
2019-03-23T02:23:00.551Z,58.90
2019-03-23T02:25:28.957Z,65.50
2019-03-23T02:27:57.347Z,61.83
2019-03-23T02:30:25.771Z,61.53
2019-03-23T02:32:54.149Z,60.05
2019-03-23T02:35:22.562Z,62.58
2019-03-23T02:37:50.952Z,61.05
2019-03-23T02:40:19.364Z,63.28
2019-03-23T02:42:47.753Z,58.25
2019-03-23T02:45:16.206Z,60.90
2019-03-23T02:47:44.673Z,61.77
2019-03-23T02:50:13.093Z,60.25
2019-03-23T02:52:41.535Z,63.92
2019-03-23T02:55:10.435Z,59.10
2019-03-23T02:57:38.858Z,57.27
2019-03-23T03:00:14.607Z,62.13
2019-03-23T03:02:43.016Z,60.30
2019-03-23T03:05:11.485Z,59.63
2019-03-23T03:07:42.616Z,64.82
2019-03-23T03:10:11.317Z,61.55
2019-03-23T03:12:39.725Z,65.60
2019-03-23T03:15:09.015Z,61.53
2019-03-23T03:17:37.405Z,62.20
2019-03-23T03:20:07.617Z,63.42
2019-03-23T03:22:36.105Z,60.55
2019-03-23T03:25:06.399Z,60.75
2019-03-23T03:27:34.827Z,62.70
2019-03-23T03:30:03.571Z,61.25
2019-03-23T03:32:32.072Z,63.52
2019-03-23T03:35:00.755Z,62.98
2019-03-23T03:37:29.234Z,63.52
2019-03-23T03:39:57.767Z,64.92
2019-03-23T03:42:26.216Z,61.83
2019-03-23T03:44:54.588Z,61.98
2019-03-23T03:47:23.020Z,60.10
2019-03-23T03:49:51.420Z,62.75
2019-03-23T03:52:19.879Z,66.92
2019-03-23T03:54:48.290Z,62.80
2019-03-23T03:57:16.699Z,57.30
2019-03-23T03:59:45.191Z,64.27
2019-03-23T04:02:13.591Z,59.75
2019-03-23T04:04:42.144Z,56.15
2019-03-23T04:07:10.528Z,58.35
2019-03-23T04:09:40.459Z,63.98
2019-03-23T04:12:09.078Z,62.98
2019-03-23T04:14:37.461Z,62.78
2019-03-23T04:17:05.922Z,59.60
2019-03-23T04:19:34.321Z,60.95
2019-03-23T04:22:02.924Z,61.55
2019-03-23T04:24:31.292Z,60.30
2019-03-23T04:27:01.418Z,61.37
2019-03-23T04:29:29.840Z,60.33
2019-03-23T04:31:58.364Z,59.10
2019-03-23T04:34:26.753Z,61.92
2019-03-23T04:36:55.226Z,62.08
2019-03-23T04:39:23.641Z,67.27
2019-03-23T04:41:53.051Z,60.67
2019-03-23T04:44:21.465Z,63.25
2019-03-23T04:46:49.888Z,59.90
2019-03-23T04:49:18.309Z,58.52
2019-03-23T04:51:46.765Z,59.88
2019-03-23T04:54:15.204Z,58.92
2019-03-23T04:56:43.855Z,61.35
2019-03-23T04:59:12.490Z,58.45
2019-03-23T05:01:40.868Z,61.48
2019-03-23T05:04:12.788Z,62.38
2019-03-23T05:06:42.592Z,61.98
2019-03-23T05:09:11.126Z,61.15
2019-03-23T05:11:39.577Z,60.85
2019-03-23T05:14:08.024Z,60.78
2019-03-23T05:16:36.414Z,58.40
2019-03-23T05:19:04.823Z,57.88
2019-03-23T05:21:33.339Z,57.85
2019-03-23T05:24:01.802Z,59.18
2019-03-23T05:26:30.211Z,59.08
2019-03-23T05:28:58.799Z,60.48
2019-03-23T05:31:27.187Z,61.42
2019-03-23T05:33:55.626Z,62.00
2019-03-23T05:36:24.170Z,60.83
2019-03-23T05:38:52.698Z,57.43
2019-03-23T05:41:21.168Z,53.83
2019-03-23T05:43:49.565Z,60.70
2019-03-23T05:46:18.003Z,61.10
2019-03-23T05:48:46.381Z,61.28
2019-03-23T05:51:14.801Z,58.13
2019-03-23T05:53:43.254Z,55.55
2019-03-23T05:56:11.698Z,56.88
2019-03-23T05:58:40.089Z,55.12
2019-03-23T06:01:12.543Z,56.18
2019-03-23T06:03:40.989Z,58.98
2019-03-23T06:06:09.511Z,59.77
2019-03-23T06:08:37.909Z,58.98
2019-03-23T06:11:06.325Z,59.30
2019-03-23T06:13:34.808Z,59.38
2019-03-23T06:16:03.221Z,59.30
2019-03-23T06:18:31.635Z,58.90
2019-03-23T06:21:03.268Z,56.90
2019-03-23T06:23:31.702Z,55.55
2019-03-23T06:26:00.102Z,59.85
2019-03-23T06:28:28.582Z,60.40
2019-03-23T06:30:57.013Z,59.00
2019-03-23T06:33:25.425Z,60.12
2019-03-23T06:35:53.804Z,57.43
2019-03-23T06:38:22.220Z,56.40
2019-03-23T06:40:51.650Z,57.62
2019-03-23T06:43:20.116Z,58.90
2019-03-23T06:45:48.493Z,55.90
2019-03-23T06:48:17.053Z,54.27
2019-03-23T06:50:45.453Z,55.55
2019-03-23T06:53:13.846Z,57.10
2019-03-23T06:55:42.284Z,58.20
2019-03-23T06:58:10.675Z,55.40
2019-03-23T07:00:39.113Z,55.40
2019-03-23T07:03:07.504Z,55.85
2019-03-23T07:05:35.929Z,54.03
2019-03-23T07:08:04.338Z,57.13
2019-03-23T07:10:32.778Z,53.38
2019-03-23T07:13:01.219Z,56.13
2019-03-23T07:15:29.742Z,56.70
2019-03-23T07:17:58.190Z,54.27
2019-03-23T07:20:26.597Z,52.98
2019-03-23T07:22:55.098Z,52.60
2019-03-23T07:25:23.497Z,53.95
2019-03-23T07:27:51.942Z,54.20
2019-03-23T07:30:20.488Z,53.60
2019-03-23T07:32:49.029Z,52.15
2019-03-23T07:35:17.737Z,53.95
2019-03-23T07:37:46.172Z,51.98
2019-03-23T07:40:14.627Z,54.67
2019-03-23T07:42:48.561Z,55.03
2019-03-23T07:45:17.003Z,52.50
2019-03-23T07:47:45.421Z,52.35
2019-03-23T07:50:14.581Z,52.23
2019-03-23T07:52:43.066Z,51.50
2019-03-23T07:55:13.882Z,52.83
2019-03-23T07:57:42.269Z,50.05
2019-03-23T08:00:13.491Z,52.45
2019-03-23T08:02:41.933Z,50.58
2019-03-23T08:05:10.519Z,50.65
2019-03-23T08:07:38.918Z,51.20
2019-03-23T08:10:08.142Z,47.30
2019-03-23T08:12:36.557Z,50.00
2019-03-23T08:15:08.890Z,53.13
2019-03-23T08:17:37.276Z,50.90
2019-03-23T08:20:06.756Z,50.38
2019-03-23T08:22:35.173Z,51.40
2019-03-23T08:25:05.102Z,50.73
2019-03-23T08:27:33.517Z,51.92
2019-03-23T08:30:01.948Z,49.83
2019-03-23T08:32:30.359Z,49.05
2019-03-23T08:34:58.795Z,49.67
2019-03-23T08:37:27.206Z,50.92
2019-03-23T08:39:55.589Z,47.10
2019-03-23T08:42:24.060Z,49.30
2019-03-23T08:44:52.460Z,49.70
2019-03-23T08:47:20.919Z,49.05
2019-03-23T08:49:49.305Z,50.28
2019-03-23T08:52:17.763Z,48.85
2019-03-23T08:54:46.206Z,48.35
2019-03-23T08:57:14.577Z,51.15
2019-03-23T08:59:43.040Z,50.05
2019-03-23T09:02:11.417Z,50.33
2019-03-23T09:04:39.886Z,50.52
2019-03-23T09:07:08.330Z,48.60
2019-03-23T09:09:36.794Z,50.30
2019-03-23T09:12:05.228Z,49.38
2019-03-23T09:14:33.690Z,48.58
2019-03-23T09:17:02.084Z,46.75
2019-03-23T09:19:30.560Z,40.30
2019-03-23T09:21:58.988Z,47.58
2019-03-23T09:24:27.406Z,50.80
2019-03-23T09:26:55.826Z,49.85
2019-03-23T09:29:24.358Z,47.70
2019-03-23T09:31:52.745Z,49.67
2019-03-23T09:34:21.253Z,50.92
2019-03-23T09:36:49.695Z,46.90
2019-03-23T09:39:18.153Z,48.15
2019-03-23T09:41:46.543Z,47.55
2019-03-23T09:44:15.049Z,48.55
2019-03-23T09:46:43.452Z,46.92
2019-03-23T09:49:11.866Z,47.50
2019-03-23T09:51:40.275Z,47.25
2019-03-23T09:54:08.760Z,47.95
2019-03-23T09:56:37.157Z,48.10
2019-03-23T09:59:05.558Z,46.42
2019-03-23T10:01:34.066Z,45.43
2019-03-23T10:04:02.459Z,43.78
2019-03-23T10:06:31.174Z,40.05
2019-03-23T10:08:59.620Z,41.40
2019-03-23T10:11:28.456Z,42.93
2019-03-23T10:13:56.846Z,44.23
2019-03-23T10:16:25.854Z,41.35
2019-03-23T10:18:55.733Z,43.58
2019-03-23T10:21:32.781Z,42.08
2019-03-23T10:24:01.160Z,45.35
2019-03-23T10:26:29.805Z,45.67
2019-03-23T10:28:58.206Z,45.98
2019-03-23T10:31:26.596Z,45.92
2019-03-23T10:33:55.100Z,42.95
2019-03-23T10:36:23.561Z,48.10
2019-03-23T10:38:51.976Z,48.23
2019-03-23T10:41:20.361Z,48.05
2019-03-23T10:43:48.799Z,42.50
2019-03-23T10:46:17.223Z,44.08
2019-03-23T10:48:45.718Z,44.60
2019-03-23T10:51:15.109Z,45.70
2019-03-23T10:53:43.545Z,43.42
2019-03-23T10:56:11.993Z,45.48
2019-03-23T10:58:40.386Z,44.95
2019-03-23T11:01:09.834Z,43.92
2019-03-23T11:03:38.235Z,44.67
2019-03-23T11:06:06.650Z,42.98
2019-03-23T11:08:35.042Z,44.13
2019-03-23T11:11:03.473Z,43.38
2019-03-23T11:13:31.858Z,41.75
2019-03-23T11:16:00.254Z,43.65
2019-03-23T11:18:28.679Z,43.20
2019-03-23T11:20:57.162Z,42.48
2019-03-23T11:23:25.610Z,46.18
2019-03-23T11:26:01.327Z,42.53
2019-03-23T11:28:29.825Z,41.30
2019-03-23T11:30:59.341Z,38.38
2019-03-23T11:33:27.734Z,39.83
2019-03-23T11:35:57.948Z,40.10
2019-03-23T11:38:26.225Z,38.45
2019-03-23T11:40:55.359Z,40.63
2019-03-23T11:43:23.887Z,38.30
2019-03-23T11:45:52.298Z,37.23
2019-03-23T11:48:20.802Z,36.58
2019-03-23T11:50:49.214Z,33.10
2019-03-23T11:53:17.662Z,32.95
2019-03-23T11:55:46.139Z,30.50
2019-03-23T11:58:14.590Z,31.73
2019-03-23T12:00:42.973Z,27.55
2019-03-23T12:03:11.536Z,24.40
2019-03-23T12:05:40.962Z,25.37
2019-03-23T12:08:09.345Z,21.25
2019-03-23T12:10:37.877Z,21.62
2019-03-23T12:13:06.305Z,20.60
2019-03-23T12:15:34.770Z,16.02
2019-03-23T12:18:03.170Z,16.62
2019-03-23T12:20:31.649Z,14.35
2019-03-23T12:23:00.057Z,14.75
2019-03-23T12:25:28.478Z,11.38
2019-03-23T12:27:56.889Z,9.10
2019-03-23T12:30:25.332Z,8.50
2019-03-23T12:32:53.737Z,8.70
2019-03-23T12:35:22.147Z,7.90
2019-03-23T12:37:50.538Z,10.35
2019-03-23T12:40:18.965Z,8.60
2019-03-23T12:42:47.355Z,7.15
2019-03-23T12:45:15.979Z,6.87
2019-03-23T12:47:44.474Z,6.55
2019-03-23T12:50:12.980Z,7.12
2019-03-23T12:52:41.376Z,6.92
2019-03-23T12:55:13.832Z,6.78
2019-03-23T12:57:42.213Z,6.37
2019-03-23T13:00:15.537Z,5.75
2019-03-23T13:02:43.916Z,6.60
2019-03-23T13:05:12.335Z,5.67
2019-03-23T13:07:40.744Z,5.45
2019-03-23T13:10:11.575Z,6.53
2019-03-23T13:12:39.981Z,6.85
2019-03-23T13:15:10.445Z,7.28
2019-03-23T13:17:38.892Z,5.40
2019-03-23T13:20:08.814Z,4.65
2019-03-23T13:22:37.381Z,4.42
2019-03-23T13:25:10.174Z,5.05
2019-03-23T13:27:38.708Z,4.58
2019-03-23T13:30:09.539Z,5.20
2019-03-23T13:32:38.006Z,4.70
2019-03-23T13:35:06.423Z,3.42
2019-03-23T13:37:34.811Z,4.37
2019-03-23T13:40:04.095Z,14.58
2019-03-23T13:42:34.117Z,4.97
2019-03-23T13:45:02.714Z,6.33
2019-03-23T13:47:31.121Z,3.85
2019-03-23T13:49:59.596Z,5.33
2019-03-23T13:52:28.042Z,4.60
2019-03-23T13:54:56.492Z,3.47
2019-03-23T13:57:24.874Z,3.58
2019-03-23T13:59:53.318Z,4.30
2019-03-23T14:02:21.773Z,3.27
2019-03-23T14:04:50.429Z,4.30
2019-03-23T14:07:18.795Z,4.37
2019-03-23T14:09:47.275Z,3.90
2019-03-23T14:12:15.715Z,4.05
2019-03-23T14:14:47.302Z,3.65
2019-03-23T14:17:15.765Z,4.33
2019-03-23T14:19:45.165Z,3.75
2019-03-23T14:22:13.623Z,4.28
2019-03-23T14:24:42.052Z,3.72
2019-03-23T14:27:10.442Z,5.92
2019-03-23T14:29:38.842Z,3.77
2019-03-23T14:32:07.267Z,4.15
2019-03-23T14:34:35.663Z,3.45
2019-03-23T14:37:05.090Z,4.65
2019-03-23T14:39:33.481Z,3.25
2019-03-23T14:42:04.968Z,5.05
2019-03-23T14:44:32.058Z,4.12
2019-03-23T14:47:01.534Z,3.95
2019-03-23T14:49:29.918Z,3.77
2019-03-23T14:51:58.360Z,3.92
2019-03-23T14:54:26.847Z,4.45
2019-03-23T14:56:55.391Z,3.60
2019-03-23T14:59:23.935Z,3.83
2019-03-23T15:01:52.363Z,3.40
2019-03-23T15:04:20.890Z,3.98
2019-03-23T15:06:49.287Z,3.33
2019-03-23T15:09:17.805Z,6.28
2019-03-23T15:11:46.187Z,4.40
2019-03-23T15:14:14.710Z,3.75
2019-03-23T15:16:43.151Z,3.67
2019-03-23T15:19:11.653Z,4.30
2019-03-23T15:21:40.037Z,4.60
2019-03-23T15:24:08.589Z,3.52
2019-03-23T15:26:37.127Z,4.83
2019-03-23T15:29:05.633Z,3.77
2019-03-23T15:31:34.022Z,4.37
2019-03-23T15:34:02.543Z,5.85
2019-03-23T15:36:30.945Z,4.05
2019-03-23T15:38:59.370Z,4.08
2019-03-23T15:41:27.786Z,5.62
2019-03-23T15:43:56.262Z,3.40
2019-03-23T15:46:24.666Z,3.72
2019-03-23T15:48:53.123Z,3.33
2019-03-23T15:51:21.554Z,3.98
2019-03-23T15:53:50.091Z,4.10
2019-03-23T15:56:18.463Z,3.98
2019-03-23T15:58:46.914Z,4.33
2019-03-23T16:01:15.322Z,5.42
2019-03-23T16:03:44.796Z,6.08
2019-03-23T16:06:13.185Z,5.25
2019-03-23T16:08:41.598Z,4.25
2019-03-23T16:11:10.021Z,3.80
2019-03-23T16:13:38.481Z,3.35
2019-03-23T16:16:07.899Z,4.12
2019-03-23T16:18:36.305Z,4.15
2019-03-23T16:21:04.708Z,4.35
2019-03-23T16:23:33.145Z,3.15
2019-03-23T16:26:01.546Z,4.70
2019-03-23T16:28:30.021Z,4.37
2019-03-23T16:30:59.439Z,3.10
2019-03-23T16:33:27.812Z,3.60
2019-03-23T16:35:56.226Z,7.10
2019-03-23T16:38:24.667Z,4.22
2019-03-23T16:40:53.081Z,4.45
2019-03-23T16:43:23.525Z,3.45
2019-03-23T16:45:51.933Z,3.47
2019-03-23T16:48:20.477Z,3.80
2019-03-23T16:50:48.888Z,3.70
2019-03-23T16:53:17.314Z,4.67
2019-03-23T16:55:45.784Z,4.47
2019-03-23T16:58:16.431Z,4.28
2019-03-23T17:00:44.353Z,4.83
2019-03-23T17:03:12.802Z,4.53
2019-03-23T17:05:42.329Z,3.75
2019-03-23T17:08:10.710Z,4.37
2019-03-23T17:10:39.177Z,3.77
2019-03-23T17:13:07.557Z,3.47
2019-03-23T17:15:35.992Z,4.30
2019-03-23T17:18:04.438Z,3.35
2019-03-23T17:20:32.896Z,5.17
2019-03-23T17:23:01.323Z,4.05
2019-03-23T17:25:29.795Z,4.22
2019-03-23T17:27:58.158Z,4.97
2019-03-23T17:30:34.995Z,4.78
2019-03-23T17:33:03.377Z,4.72
2019-03-23T17:35:31.827Z,3.67
2019-03-23T17:38:00.276Z,4.10
2019-03-23T17:40:28.737Z,5.50
2019-03-23T17:43:05.614Z,4.62
2019-03-23T17:45:27.262Z,3.83
2019-03-23T17:47:55.708Z,5.05
2019-03-23T17:50:24.111Z,5.22
2019-03-23T17:52:52.546Z,4.67
2019-03-23T17:55:20.951Z,4.33
2019-03-23T17:57:50.321Z,5.62
2019-03-23T18:00:31.593Z,4.67
2019-03-23T18:03:26.947Z,4.10
2019-03-23T18:05:55.970Z,6.28
2019-03-23T18:08:24.813Z,5.22
2019-03-23T18:10:53.686Z,5.67
2019-03-23T18:19:52.087Z,5.42
2019-03-23T18:22:20.497Z,5.50
2019-03-23T18:24:48.910Z,4.53
2019-03-23T18:27:17.358Z,4.67
2019-03-23T18:29:47.501Z,5.37
2019-03-23T18:32:16.055Z,5.42
2019-03-23T18:34:44.571Z,5.22
2019-03-23T18:37:13.004Z,5.08
2019-03-23T18:39:54.121Z,5.47
2019-03-23T18:42:22.507Z,5.17
2019-03-23T18:44:51.024Z,5.20
2019-03-23T18:47:30.382Z,5.85
2019-03-23T18:49:57.660Z,5.12
2019-03-23T18:52:26.134Z,5.28
2019-03-23T18:54:54.716Z,5.33
2019-03-23T18:57:29.141Z,5.78
2019-03-23T18:59:57.582Z,5.85
2019-03-23T19:02:26.008Z,6.17
2019-03-23T19:04:54.587Z,7.33
2019-03-23T19:07:23.031Z,6.35
2019-03-23T19:09:51.444Z,6.08
2019-03-23T19:12:19.963Z,6.25
2019-03-23T19:14:48.370Z,6.47
2019-03-23T19:17:16.794Z,7.37
2019-03-23T19:19:45.381Z,6.30
2019-03-23T19:22:13.853Z,5.60
2019-03-23T19:24:42.248Z,6.15
2019-03-23T19:27:10.658Z,6.78
2019-03-23T19:29:39.046Z,8.15
2019-03-23T19:32:07.493Z,7.72
2019-03-23T19:34:35.901Z,8.88
2019-03-23T19:37:04.295Z,9.25
2019-03-23T19:39:32.730Z,10.35
2019-03-23T19:42:01.132Z,10.05
2019-03-23T19:44:30.780Z,9.48
2019-03-23T19:46:59.560Z,8.83
2019-03-23T19:49:31.885Z,9.73
2019-03-23T19:52:00.619Z,9.90
2019-03-23T19:54:29.088Z,10.75
2019-03-23T19:56:57.688Z,10.28
2019-03-23T19:59:26.239Z,11.28
2019-03-23T20:01:55.558Z,9.53
2019-03-23T20:04:23.907Z,9.78
2019-03-23T20:06:52.355Z,8.80
2019-03-23T20:09:20.838Z,9.75
2019-03-23T20:11:49.411Z,9.08
2019-03-23T20:14:19.191Z,7.83
2019-03-23T20:16:47.826Z,8.55
2019-03-23T20:19:16.593Z,7.78
2019-03-23T20:21:45.067Z,7.17
2019-03-23T20:24:13.774Z,7.37
2019-03-23T20:26:42.476Z,8.40
2019-03-23T20:29:10.796Z,7.95
2019-03-23T20:31:39.241Z,9.85
2019-03-23T20:34:07.789Z,7.08
2019-03-23T20:36:36.139Z,8.23
2019-03-23T20:39:06.811Z,7.78
2019-03-23T20:41:35.322Z,8.65
2019-03-23T20:44:09.335Z,6.95
2019-03-23T20:46:34.870Z,9.13
2019-03-23T20:49:03.209Z,7.80
2019-03-23T20:51:31.739Z,7.20
2019-03-23T20:54:00.454Z,7.70
2019-03-23T20:56:29.179Z,6.45
2019-03-23T20:58:59.816Z,6.20
2019-03-23T21:01:28.382Z,6.42
2019-03-23T21:03:57.066Z,7.70
2019-03-23T21:06:25.704Z,7.58
2019-03-23T21:08:54.143Z,6.37
2019-03-23T21:11:22.551Z,5.95
2019-03-23T21:13:52.017Z,7.97
2019-03-23T21:16:40.085Z,7.42
2019-03-23T21:19:08.583Z,8.48
2019-03-23T21:21:39.846Z,7.60
2019-03-23T21:24:08.513Z,10.05
2019-03-23T21:26:38.168Z,8.88
2019-03-23T21:29:06.638Z,11.15
2019-03-23T21:31:35.196Z,11.35
2019-03-23T21:34:06.252Z,12.45
2019-03-23T21:36:35.404Z,11.20
2019-03-23T21:39:05.784Z,10.90
2019-03-23T21:41:34.233Z,12.63
2019-03-23T21:44:04.663Z,12.40
2019-03-23T21:46:32.785Z,14.38
2019-03-23T21:49:01.261Z,14.03
2019-03-23T21:51:29.943Z,16.27
2019-03-23T21:53:58.632Z,14.00
2019-03-23T21:56:27.190Z,14.90
2019-03-23T21:58:55.651Z,13.70
2019-03-23T22:01:27.596Z,12.45
2019-03-23T22:03:55.968Z,11.80
2019-03-23T22:06:24.422Z,11.93
2019-03-23T22:08:52.803Z,13.58
2019-03-23T22:11:21.384Z,12.20
2019-03-23T22:13:49.811Z,11.55
2019-03-23T22:16:18.185Z,11.30
2019-03-23T22:18:46.601Z,11.03
2019-03-23T22:21:15.052Z,11.38
2019-03-23T22:23:43.488Z,11.33
2019-03-23T22:26:11.973Z,13.48
2019-03-23T22:28:40.378Z,11.40
2019-03-23T22:31:08.767Z,10.85
2019-03-23T22:33:37.287Z,12.00
2019-03-23T22:36:05.670Z,10.93
2019-03-23T22:38:34.091Z,11.80
2019-03-23T22:41:03.528Z,10.32
2019-03-23T22:43:31.929Z,9.70
2019-03-23T22:46:00.366Z,11.12
2019-03-23T22:48:28.780Z,11.10
2019-03-23T22:50:57.214Z,11.08
2019-03-23T22:53:25.726Z,10.60
2019-03-23T22:55:54.120Z,9.73
2019-03-23T22:58:22.520Z,9.33
2019-03-23T23:00:50.984Z,10.45
2019-03-23T23:03:19.391Z,9.95
2019-03-23T23:05:47.778Z,9.85
2019-03-23T23:08:16.429Z,9.18
2019-03-23T23:10:44.821Z,11.60
2019-03-23T23:13:13.552Z,10.15
2019-03-23T23:15:41.979Z,10.35
2019-03-23T23:18:10.359Z,9.43
2019-03-23T23:20:38.763Z,9.70
2019-03-23T23:23:07.149Z,7.95
2019-03-23T23:25:55.014Z,8.85
2019-03-23T23:28:23.519Z,7.62
2019-03-23T23:30:51.922Z,9.78
2019-03-23T23:33:20.322Z,9.60
2019-03-23T23:35:48.773Z,9.98
2019-03-23T23:38:17.150Z,9.90
2019-03-23T23:40:45.583Z,9.90
2019-03-23T23:43:13.970Z,9.18
2019-03-23T23:45:43.456Z,9.10
2019-03-23T23:48:11.842Z,7.25
2019-03-23T23:50:40.281Z,8.80
2019-03-23T23:53:08.680Z,9.38
2019-03-23T23:55:37.062Z,10.98
2019-03-23T23:58:05.501Z,12.35
